Welcome to Northern Hawkes Bay. New Zealand.
PWS Header
      nz Flag



Hit Counter


W3C Valid W3C Valid logo


    Wairoa

Select any of the Stations below to visit their websites.










Historic Data from Weather Underground
Select the location of interest below. Wairoa is the default. Please have patience, this Data is slow to load in.
Northern Hawkes Bay Historical Data
Daily Summary for September 14, 2017 Units:  Metric    English   Both
« Previous Day
Next Day »
Daily Weekly Monthly Yearly Custom
  High: Low: Average:
Temperature: 25.7 °C 12.2 °C 17.8 °C
Dew Point: 12.9 °C 7.9 °C 10.5 °C
Humidity: 84% 42% 64%
Wind Speed: 13.4km/h 0.0km/h 3.5km/h
Wind Gust: 18.3km/h - -
Wind- - West
Pressure: 1013.4 hPa 1005.3 hPa -
Precipitation: 0.0 mm    
Historical Graphs
 
 
Tabular Data for September 14, 2017
Time Temperature Dew Point Pressure Wind Wind Speed Wind Gust Humidity Rainfall Rate (Hourly) solar
00:01 13.8 °C 8.0 °C 1007.0 hPa North 1.1 km/h 13.4 km/h 68% 0.0 mm 0 W/m2
00:06 13.8 °C 8.0 °C 1007.3 hPa North 3.5 km/h 9.7 km/h 68% 0.0 mm 0 W/m2
00:11 13.6 °C 8.0 °C 1007.0 hPa Calm   7.2 km/h 69% 0.0 mm 0 W/m2
00:16 13.5 °C 7.9 °C 1007.3 hPa Calm   6.1 km/h 69% 0.0 mm 0 W/m2
00:21 13.4 °C 8.1 °C 1007.3 hPa NNE 2.6 km/h 5.0 km/h 70% 0.0 mm 0 W/m2
00:26 13.3 °C 7.9 °C 1007.0 hPa North 3.5 km/h 7.2 km/h 70% 0.0 mm 0 W/m2
00:31 13.3 °C 7.9 °C 1006.7 hPa Calm   7.2 km/h 70% 0.0 mm 0 W/m2
00:36 13.0 °C 7.9 °C 1006.7 hPa North 1.1 km/h 7.2 km/h 71% 0.0 mm 0 W/m2
00:41 12.9 °C 8.0 °C 1006.7 hPa North 2.6 km/h 9.7 km/h 72% 0.0 mm 0 W/m2
00:46 13.0 °C 8.1 °C 1006.7 hPa North 5.0 km/h 9.7 km/h 72% 0.0 mm 0 W/m2
00:51 13.1 °C 8.4 °C 1006.7 hPa North 1.1 km/h 9.7 km/h 73% 0.0 mm 0 W/m2
00:56 13.2 °C 8.4 °C 1006.7 hPa NNW 3.5 km/h 9.7 km/h 73% 0.0 mm 0 W/m2
01:01 13.1 °C 8.4 °C 1007.0 hPa NNW 1.1 km/h 8.7 km/h 73% 0.0 mm 0 W/m2
01:06 13.0 °C 8.3 °C 1007.0 hPa North 1.1 km/h 7.2 km/h 73% 0.0 mm 0 W/m2
01:11 12.8 °C 8.1 °C 1007.0 hPa Calm   7.2 km/h 73% 0.0 mm 0 W/m2
01:16 12.7 °C 8.2 °C 1006.7 hPa Calm   3.5 km/h 74% 0.0 mm 0 W/m2
01:21 12.5 °C 8.0 °C 1006.7 hPa Calm   1.1 km/h 74% 0.0 mm 0 W/m2
01:26 12.4 °C 7.9 °C 1006.7 hPa North 2.6 km/h 3.5 km/h 74% 0.0 mm 0 W/m2
01:31 12.4 °C 8.1 °C 1006.7 hPa Calm   3.5 km/h 75% 0.0 mm 0 W/m2
01:49 12.2 °C 7.9 °C 1006.3 hPa Calm   2.6 km/h 75% 0.0 mm 0 W/m2
01:54 12.3 °C 8.2 °C 1006.3 hPa Calm   5.0 km/h 76% 0.0 mm 0 W/m2
01:59 12.5 °C 8.6 °C 1006.3 hPa Calm   7.2 km/h 77% 0.0 mm 0 W/m2
02:04 12.6 °C 8.7 °C 1006.0 hPa Calm   7.2 km/h 77% 0.0 mm 0 W/m2
02:09 12.9 °C 8.8 °C 1006.0 hPa North 2.6 km/h 6.1 km/h 76% 0.0 mm 0 W/m2
02:14 13.1 °C 8.9 °C 1005.6 hPa Calm   6.1 km/h 76% 0.0 mm 0 W/m2
02:19 13.2 °C 9.3 °C 1005.6 hPa North 1.1 km/h 7.2 km/h 77% 0.0 mm 0 W/m2
02:24 13.3 °C 9.3 °C 1005.6 hPa North 2.6 km/h 8.7 km/h 77% 0.0 mm 0 W/m2
02:29 13.5 °C 9.6 °C 1006.0 hPa NNW 2.6 km/h 8.7 km/h 77% 0.0 mm 0 W/m2
02:34 13.6 °C 9.7 °C 1006.0 hPa NNW 2.6 km/h 8.7 km/h 77% 0.0 mm 0 W/m2
02:39 13.5 °C 9.6 °C 1006.0 hPa North 1.1 km/h 7.2 km/h 77% 0.0 mm 0 W/m2
02:44 13.8 °C 9.7 °C 1006.0 hPa NNW 11.1 km/h 14.8 km/h 76% 0.0 mm 0 W/m2
02:49 14.1 °C 9.6 °C 1005.6 hPa NNW 2.6 km/h 14.8 km/h 74% 0.0 mm 0 W/m2
02:54 14.1 °C 9.6 °C 1006.0 hPa NNW 3.5 km/h 14.8 km/h 74% 0.0 mm 0 W/m2
02:59 14.1 °C 9.6 °C 1005.6 hPa NNW 2.6 km/h 13.4 km/h 74% 0.0 mm 0 W/m2
03:04 13.9 °C 9.6 °C 1005.6 hPa NNW 5.0 km/h 13.4 km/h 75% 0.0 mm 0 W/m2
03:09 13.9 °C 9.6 °C 1005.6 hPa NNW 6.1 km/h 12.2 km/h 75% 0.0 mm 0 W/m2
03:14 14.0 °C 9.4 °C 1005.6 hPa NNW 5.0 km/h 12.2 km/h 74% 0.0 mm 0 W/m2
03:19 14.0 °C 9.4 °C 1006.0 hPa NNW 1.1 km/h 9.7 km/h 74% 0.0 mm 0 W/m2
03:24 13.9 °C 9.6 °C 1006.0 hPa North 3.5 km/h 6.1 km/h 75% 0.0 mm 0 W/m2
03:29 14.0 °C 9.4 °C 1005.6 hPa North 2.6 km/h 5.0 km/h 74% 0.0 mm 0 W/m2
03:34 13.9 °C 9.6 °C 1005.6 hPa North 1.1 km/h 5.0 km/h 75% 0.0 mm 0 W/m2
03:39 13.8 °C 9.7 °C 1005.6 hPa North 6.1 km/h 8.7 km/h 76% 0.0 mm 0 W/m2
03:44 13.6 °C 9.4 °C 1005.6 hPa NNW 6.1 km/h 11.1 km/h 76% 0.0 mm 0 W/m2
03:49 13.5 °C 9.3 °C 1005.3 hPa NNW 3.5 km/h 11.1 km/h 76% 0.0 mm 0 W/m2
03:54 13.4 °C 9.3 °C 1005.6 hPa NNW 6.1 km/h 13.4 km/h 76% 0.0 mm 0 W/m2
03:59 13.4 °C 9.3 °C 1005.6 hPa NNW 5.0 km/h 13.4 km/h 76% 0.0 mm 0 W/m2
04:04 13.4 °C 9.3 °C 1005.6 hPa NNW 6.1 km/h 13.4 km/h 76% 0.0 mm 0 W/m2
04:09 13.5 °C 9.3 °C 1005.6 hPa NNW 6.1 km/h 14.8 km/h 76% 0.0 mm 0 W/m2
04:14 13.6 °C 9.4 °C 1005.3 hPa NNW 3.5 km/h 14.8 km/h 76% 0.0 mm 0 W/m2
04:19 13.6 °C 9.3 °C 1005.6 hPa NNW 2.6 km/h 12.2 km/h 75% 0.0 mm 0 W/m2
04:24 13.5 °C 9.3 °C 1005.6 hPa North 5.0 km/h 14.8 km/h 76% 0.0 mm 0 W/m2
04:29 13.4 °C 9.3 °C 1005.6 hPa North 6.1 km/h 14.8 km/h 76% 0.0 mm 0 W/m2
04:34 13.4 °C 9.4 °C 1005.6 hPa NNW 6.1 km/h 14.8 km/h 77% 0.0 mm 0 W/m2
04:39 13.4 °C 9.4 °C 1005.6 hPa North 6.1 km/h 12.2 km/h 77% 0.0 mm 0 W/m2
04:44 13.5 °C 9.6 °C 1005.6 hPa North 6.1 km/h 12.2 km/h 77% 0.0 mm 0 W/m2
04:49 13.6 °C 9.7 °C 1005.6 hPa NNE 9.7 km/h 14.8 km/h 77% 0.0 mm 0 W/m2
04:54 13.8 °C 9.8 °C 1005.6 hPa North 5.0 km/h 14.8 km/h 77% 0.0 mm 0 W/m2
04:59 13.8 °C 9.8 °C 1005.6 hPa North 8.7 km/h 14.8 km/h 77% 0.0 mm 0 W/m2
05:04 13.8 °C 9.7 °C 1005.6 hPa North 6.1 km/h 14.8 km/h 76% 0.0 mm 0 W/m2
05:09 13.6 °C 9.7 °C 1005.6 hPa North 6.1 km/h 14.8 km/h 77% 0.0 mm 0 W/m2
05:14 13.8 °C 9.8 °C 1005.6 hPa NNW 8.7 km/h 14.8 km/h 77% 0.0 mm 0 W/m2
05:19 13.8 °C 9.8 °C 1005.6 hPa NNW 8.7 km/h 13.4 km/h 77% 0.0 mm 0 W/m2
05:24 14.0 °C 9.7 °C 1005.6 hPa NNW 5.0 km/h 12.2 km/h 75% 0.0 mm 0 W/m2
05:29 14.1 °C 9.7 °C 1006.0 hPa NNW 11.1 km/h 13.4 km/h 75% 0.0 mm 0 W/m2
05:34 14.5 °C 9.9 °C 1006.0 hPa NNW 13.4 km/h 15.8 km/h 74% 0.0 mm 0 W/m2
05:39 14.6 °C 10.0 °C 1006.0 hPa NW 13.4 km/h 17.2 km/h 74% 0.0 mm 0 W/m2
05:44 14.7 °C 9.9 °C 1006.0 hPa NW 7.2 km/h 17.2 km/h 73% 0.0 mm 0 W/m2
05:49 14.7 °C 9.9 °C 1006.3 hPa NNW 8.7 km/h 15.8 km/h 73% 0.0 mm 0 W/m2
05:54 14.6 °C 9.8 °C 1006.0 hPa NNW 8.7 km/h 15.8 km/h 73% 0.0 mm 0 W/m2
05:59 14.7 °C 9.9 °C 1006.0 hPa NW 9.7 km/h 18.3 km/h 73% 0.0 mm 0 W/m2
06:04 14.8 °C 10.0 °C 1006.3 hPa NW 9.7 km/h 18.3 km/h 73% 0.0 mm 0 W/m2
06:09 14.7 °C 9.9 °C 1006.3 hPa NNW 8.7 km/h 15.8 km/h 73% 0.0 mm 0 W/m2
06:14 14.4 °C 9.6 °C 1006.3 hPa NNW 7.2 km/h 13.4 km/h 73% 0.0 mm 0 W/m2
06:19 14.2 °C 9.6 °C 1006.3 hPa NNW 6.1 km/h 12.2 km/h 74% 0.0 mm 2 W/m2
06:24 14.1 °C 9.6 °C 1006.3 hPa NNW 5.0 km/h 12.2 km/h 74% 0.0 mm 6 W/m2
06:29 13.8 °C 9.7 °C 1006.3 hPa NNW 2.6 km/h 11.1 km/h 76% 0.0 mm 10 W/m2
06:34 13.8 °C 9.7 °C 1006.7 hPa NNW 1.1 km/h 9.7 km/h 76% 0.0 mm 16 W/m2
06:39 13.6 °C 9.4 °C 1006.7 hPa North 2.6 km/h 6.1 km/h 76% 0.0 mm 22 W/m2
06:44 13.9 °C 9.9 °C 1006.7 hPa North 2.6 km/h 3.5 km/h 77% 0.0 mm 54 W/m2
06:54 14.7 °C 10.1 °C 1006.7 hPa NNW 5.0 km/h 9.7 km/h 74% 0.0 mm 79 W/m2
06:59 15.0 °C 9.8 °C 1006.7 hPa NNW 6.1 km/h 9.7 km/h 71% 0.0 mm 85 W/m2
07:04 15.2 °C 10.0 °C 1007.0 hPa NNW 2.6 km/h 9.7 km/h 71% 0.0 mm 93 W/m2
07:09 15.7 °C 10.3 °C 1007.3 hPa NNW 3.5 km/h 8.7 km/h 70% 0.0 mm 107 W/m2
07:14 16.1 °C 10.2 °C 1007.0 hPa North 2.6 km/h 6.1 km/h 68% 0.0 mm 125 W/m2
07:19 16.4 °C 10.3 °C 1007.3 hPa North 1.1 km/h 7.2 km/h 67% 0.0 mm 137 W/m2
07:24 16.8 °C 10.4 °C 1007.3 hPa North 3.5 km/h 7.2 km/h 66% 0.0 mm 150 W/m2
07:29 17.1 °C 10.0 °C 1007.3 hPa North 5.0 km/h 9.7 km/h 63% 0.0 mm 168 W/m2
07:34 17.3 °C 10.2 °C 1007.3 hPa NNW 2.6 km/h 9.7 km/h 63% 0.0 mm 183 W/m2
07:39 17.7 °C 10.3 °C 1008.0 hPa NNW 5.0 km/h 8.7 km/h 62% 0.0 mm 193 W/m2
07:44 17.9 °C 10.3 °C 1007.7 hPa NNW 6.1 km/h 11.1 km/h 61% 0.0 mm 204 W/m2
07:49 18.1 °C 10.2 °C 1007.7 hPa NNW 8.7 km/h 14.8 km/h 60% 0.0 mm 213 W/m2
07:54 18.2 °C 10.3 °C 1008.0 hPa NW 7.2 km/h 14.8 km/h 60% 0.0 mm 225 W/m2
07:59 18.4 °C 10.3 °C 1008.4 hPa NW 7.2 km/h 13.4 km/h 59% 0.0 mm 230 W/m2
08:04 18.7 °C 10.6 °C 1008.4 hPa NW 6.1 km/h 13.4 km/h 59% 0.0 mm 236 W/m2
08:09 18.9 °C 10.4 °C 1008.4 hPa NNW 6.1 km/h 12.2 km/h 58% 0.0 mm 243 W/m2
08:14 19.0 °C 10.1 °C 1008.4 hPa North 7.2 km/h 12.2 km/h 56% 0.0 mm 250 W/m2
08:19 19.0 °C 10.1 °C 1008.7 hPa NNW 5.0 km/h 12.2 km/h 56% 0.0 mm 257 W/m2
08:24 19.2 °C 10.2 °C 1008.4 hPa NNW 2.6 km/h 12.2 km/h 56% 0.0 mm 265 W/m2
08:29 19.4 °C 10.4 °C 1008.7 hPa NNW 3.5 km/h 12.2 km/h 56% 0.0 mm 272 W/m2
08:34 19.3 °C 10.3 °C 1008.7 hPa NNW 7.2 km/h 15.8 km/h 56% 0.0 mm 279 W/m2
08:39 19.5 °C 10.5 °C 1008.7 hPa NNW 7.2 km/h 15.8 km/h 56% 0.0 mm 293 W/m2
08:44 19.7 °C 10.7 °C 1008.7 hPa NNW 9.7 km/h 17.2 km/h 56% 0.0 mm 294 W/m2
08:49 19.8 °C 10.5 °C 1008.4 hPa NNW 9.7 km/h 17.2 km/h 55% 0.0 mm 311 W/m2
08:54 19.9 °C 10.9 °C 1009.0 hPa NNW 8.7 km/h 15.8 km/h 56% 0.0 mm 265 W/m2
08:59 19.7 °C 10.7 °C 1009.0 hPa NW 7.2 km/h 15.8 km/h 56% 0.0 mm 212 W/m2
09:04 19.5 °C 10.2 °C 1009.0 hPa NW 9.7 km/h 17.2 km/h 55% 0.0 mm 158 W/m2
09:09 19.6 °C 10.3 °C 1009.4 hPa NW 7.2 km/h 17.2 km/h 55% 0.0 mm 326 W/m2
09:14 19.9 °C 10.6 °C 1009.0 hPa NW 7.2 km/h 17.2 km/h 55% 0.0 mm 326 W/m2
09:32 20.8 °C 10.9 °C 1009.4 hPa NW 6.1 km/h 13.4 km/h 53% 0.0 mm 162 W/m2
09:37 20.5 °C 10.3 °C 1009.4 hPa NW 2.6 km/h 13.4 km/h 52% 0.0 mm 221 W/m2
09:42 20.6 °C 10.4 °C 1009.4 hPa NW 6.1 km/h 13.4 km/h 52% 0.0 mm 92 W/m2
09:47 20.8 °C 10.0 °C 1009.4 hPa NNW 8.7 km/h 17.2 km/h 50% 0.0 mm 297 W/m2
09:52 20.9 °C 10.7 °C 1009.4 hPa NW 11.1 km/h 17.2 km/h 52% 0.0 mm 152 W/m2
09:57 21.0 °C 10.5 °C 1009.7 hPa NNW 6.1 km/h 17.2 km/h 51% 0.0 mm 93 W/m2
10:02 21.0 °C 9.9 °C 1009.7 hPa NNW 3.5 km/h 14.8 km/h 49% 0.0 mm 89 W/m2
10:07 21.2 °C 10.4 °C 1009.7 hPa NNW 3.5 km/h 13.4 km/h 50% 0.0 mm 91 W/m2
10:12 21.7 °C 10.2 °C 1009.7 hPa NNW 8.7 km/h 14.8 km/h 48% 0.0 mm 93 W/m2
10:17 21.4 °C 10.3 °C 1009.7 hPa NNW 1.1 km/h 14.8 km/h 49% 0.0 mm 105 W/m2
10:22 21.8 °C 10.0 °C 1009.7 hPa NNW 6.1 km/h 13.4 km/h 47% 0.0 mm 127 W/m2
10:27 21.7 °C 9.9 °C 1009.4 hPa NNW 1.1 km/h 12.2 km/h 47% 0.0 mm 192 W/m2
10:32 22.1 °C 9.9 °C 1009.4 hPa NNW 2.6 km/h 12.2 km/h 46% 0.0 mm 333 W/m2
10:37 22.3 °C 10.4 °C 1009.7 hPa NW 6.1 km/h 12.2 km/h 47% 0.0 mm 361 W/m2
10:42 22.4 °C 9.9 °C 1009.4 hPa Calm   12.2 km/h 45% 0.0 mm 437 W/m2
10:47 22.8 °C 10.3 °C 1009.7 hPa NW 2.6 km/h 12.2 km/h 45% 0.0 mm 452 W/m2
10:52 22.5 °C 9.7 °C 1009.4 hPa NW 5.0 km/h 11.1 km/h 44% 0.0 mm 464 W/m2
10:57 22.4 °C 9.6 °C 1009.4 hPa NW 3.5 km/h 11.1 km/h 44% 0.0 mm 450 W/m2
11:02 22.4 °C 9.6 °C 1009.4 hPa WNW 1.1 km/h 11.1 km/h 44% 0.0 mm 425 W/m2
11:07 22.6 °C 9.1 °C 1009.4 hPa West 5.0 km/h 8.7 km/h 42% 0.0 mm 147 W/m2
11:12 22.7 °C 9.8 °C 1009.4 hPa SW 6.1 km/h 8.7 km/h 44% 0.0 mm 520 W/m2
11:17 22.4 °C 9.9 °C 1009.4 hPa SSW 3.5 km/h 8.7 km/h 45% 0.0 mm 304 W/m2
11:22 22.1 °C 9.3 °C 1009.4 hPa South 5.0 km/h 8.7 km/h 44% 0.0 mm 458 W/m2
11:27 22.0 °C 9.9 °C 1009.0 hPa South 2.6 km/h 9.7 km/h 46% 0.0 mm 511 W/m2
11:32 22.1 °C 9.9 °C 1009.0 hPa South 2.6 km/h 9.7 km/h 46% 0.0 mm 514 W/m2
11:37 22.1 °C 9.3 °C 1009.0 hPa Calm   11.1 km/h 44% 0.0 mm 548 W/m2
11:42 22.9 °C 10.0 °C 1009.0 hPa Calm   11.1 km/h 44% 0.0 mm 533 W/m2
11:47 23.2 °C 10.6 °C 1009.0 hPa SSW 9.7 km/h 11.1 km/h 45% 0.0 mm 503 W/m2
11:52 22.0 °C 10.5 °C 1009.0 hPa South 6.1 km/h 12.2 km/h 48% 0.0 mm 544 W/m2
11:57 21.8 °C 11.8 °C 1009.0 hPa Calm   12.2 km/h 53% 0.0 mm 518 W/m2
12:02 22.3 °C 10.8 °C 1009.0 hPa South 1.1 km/h 11.1 km/h 48% 0.0 mm 537 W/m2
12:07 23.0 °C 11.7 °C 1008.7 hPa SSE 1.1 km/h 8.7 km/h 49% 0.0 mm 321 W/m2
12:12 23.2 °C 11.6 °C 1009.0 hPa SE 3.5 km/h 8.7 km/h 48% 0.0 mm 551 W/m2
12:17 23.3 °C 11.4 °C 1009.0 hPa SE 3.5 km/h 8.7 km/h 47% 0.0 mm 505 W/m2
12:22 23.2 °C 11.6 °C 1008.7 hPa SE 1.1 km/h 9.7 km/h 48% 0.0 mm 555 W/m2
12:27 22.8 °C 10.6 °C 1008.7 hPa SSE 3.5 km/h 9.7 km/h 46% 0.0 mm 434 W/m2
12:32 22.0 °C 11.1 °C 1009.0 hPa SSE 7.2 km/h 12.2 km/h 50% 0.0 mm 560 W/m2
12:37 22.3 °C 11.1 °C 1008.7 hPa SSE 5.0 km/h 12.2 km/h 49% 0.0 mm 531 W/m2
12:42 22.3 °C 10.1 °C 1008.7 hPa SSE 5.0 km/h 13.4 km/h 46% 0.0 mm 510 W/m2
12:47 22.6 °C 11.1 °C 1008.7 hPa SSE 9.7 km/h 13.4 km/h 48% 0.0 mm 513 W/m2
12:52 22.2 °C 10.1 °C 1008.7 hPa South 3.5 km/h 14.8 km/h 46% 0.0 mm 413 W/m2
12:57 22.2 °C 11.0 °C 1009.0 hPa South 7.2 km/h 14.8 km/h 49% 0.0 mm 401 W/m2
13:02 22.5 °C 11.3 °C 1008.7 hPa SSE 7.2 km/h 12.2 km/h 49% 0.0 mm 500 W/m2
13:07 22.3 °C 11.1 °C 1009.0 hPa South 7.2 km/h 12.2 km/h 49% 0.0 mm 479 W/m2
13:12 22.2 °C 11.3 °C 1008.7 hPa South 3.5 km/h 12.2 km/h 50% 0.0 mm 99 W/m2
13:17 22.2 °C 11.0 °C 1008.7 hPa SSE 5.0 km/h 12.2 km/h 49% 0.0 mm 252 W/m2
13:22 22.1 °C 10.9 °C 1008.7 hPa SSE 5.0 km/h 12.2 km/h 49% 0.0 mm 265 W/m2
13:27 22.0 °C 10.5 °C 1009.0 hPa SSE 6.1 km/h 11.1 km/h 48% 0.0 mm 279 W/m2
13:32 22.3 °C 11.4 °C 1008.7 hPa South 7.2 km/h 12.2 km/h 50% 0.0 mm 477 W/m2
13:37 22.4 °C 10.9 °C 1009.0 hPa SSE 1.1 km/h 12.2 km/h 48% 0.0 mm 469 W/m2
13:42 23.2 °C 11.6 °C 1009.4 hPa SE 5.0 km/h 9.7 km/h 48% 0.0 mm 397 W/m2
13:47 23.3 °C 11.4 °C 1009.4 hPa SSE 2.6 km/h 7.2 km/h 47% 0.0 mm 458 W/m2
13:52 23.7 °C 11.4 °C 1009.4 hPa SSE 2.6 km/h 9.7 km/h 46% 0.0 mm 447 W/m2
13:57 23.9 °C 11.3 °C 1009.4 hPa SSE 1.1 km/h 9.7 km/h 45% 0.0 mm 439 W/m2
14:02 24.1 °C 11.1 °C 1009.0 hPa Calm   7.2 km/h 44% 0.0 mm 396 W/m2
14:07 24.5 °C 11.4 °C 1009.0 hPa SSE 5.0 km/h 8.7 km/h 44% 0.0 mm 209 W/m2
14:12 24.0 °C 11.0 °C 1009.0 hPa SE 2.6 km/h 8.7 km/h 44% 0.0 mm 85 W/m2
14:17 23.4 °C 11.1 °C 1009.0 hPa South 7.2 km/h 9.7 km/h 46% 0.0 mm 80 W/m2
14:22 24.0 °C 11.0 °C 1009.4 hPa SSE 2.6 km/h 9.7 km/h 44% 0.0 mm 78 W/m2
14:27 24.2 °C 11.2 °C 1009.4 hPa SE 1.1 km/h 8.7 km/h 44% 0.0 mm 80 W/m2
14:32 24.4 °C 11.4 °C 1009.4 hPa South 5.0 km/h 8.7 km/h 44% 0.0 mm 79 W/m2
14:37 23.8 °C 11.2 °C 1009.4 hPa SSE 3.5 km/h 9.7 km/h 45% 0.0 mm 80 W/m2
14:42 24.0 °C 11.3 °C 1009.0 hPa Calm   9.7 km/h 45% 0.0 mm 79 W/m2
14:47 24.2 °C 11.2 °C 1009.4 hPa SSE 1.1 km/h 9.7 km/h 44% 0.0 mm 79 W/m2
14:52 24.5 °C 11.4 °C 1009.4 hPa Calm   6.1 km/h 44% 0.0 mm 125 W/m2
14:57 24.8 °C 11.7 °C 1009.4 hPa SE 1.1 km/h 6.1 km/h 44% 0.0 mm 266 W/m2
15:02 24.8 °C 11.7 °C 1009.4 hPa Calm   8.7 km/h 44% 0.0 mm 100 W/m2
15:07 25.3 °C 11.8 °C 1009.4 hPa Calm   8.7 km/h 43% 0.0 mm 305 W/m2
15:16 24.5 °C 11.4 °C 1009.4 hPa SSE 1.1 km/h 8.7 km/h 44% 0.0 mm 138 W/m2
15:21 24.5 °C 11.8 °C 1009.4 hPa SSE 1.1 km/h 8.7 km/h 45% 0.0 mm 298 W/m2
15:27 25.4 °C 12.3 °C 1009.4 hPa Calm   5.0 km/h 44% 0.0 mm 282 W/m2
15:29 25.6 °C 12.4 °C 1009.0 hPa Calm   5.0 km/h 44% 0.0 mm 277 W/m2
15:32 25.5 °C 12.4 °C 1009.4 hPa ESE 1.1 km/h 5.0 km/h 44% 0.0 mm 270 W/m2
15:33 25.1 °C 12.0 °C 1009.4 hPa Calm   6.1 km/h 44% 0.0 mm 268 W/m2
15:37 24.3 °C 11.6 °C 1009.4 hPa ENE 1.1 km/h 9.7 km/h 45% 0.0 mm 257 W/m2
15:43 24.2 °C 11.9 °C 1009.4 hPa Calm   9.7 km/h 46% 0.0 mm 241 W/m2
15:44 24.2 °C 11.9 °C 1009.4 hPa ENE 1.1 km/h 9.7 km/h 46% 0.0 mm 239 W/m2
15:54 24.5 °C 11.8 °C 1009.4 hPa ENE 2.6 km/h 5.0 km/h 45% 0.0 mm 210 W/m2
15:59 24.5 °C 11.8 °C 1009.4 hPa Calm   5.0 km/h 45% 0.0 mm 196 W/m2
16:04 24.5 °C 11.8 °C 1009.4 hPa East 1.1 km/h 5.0 km/h 45% 0.0 mm 182 W/m2
16:09 24.4 °C 11.7 °C 1009.7 hPa East 1.1 km/h 6.1 km/h 45% 0.0 mm 169 W/m2
16:14 24.4 °C 11.7 °C 1009.7 hPa Calm   6.1 km/h 45% 0.0 mm 159 W/m2
16:19 25.0 °C 12.3 °C 1009.7 hPa SE 1.1 km/h 6.1 km/h 45% 0.0 mm 149 W/m2
16:24 24.6 °C 12.6 °C 1009.7 hPa SW 1.1 km/h 6.1 km/h 47% 0.0 mm 137 W/m2
16:29 25.3 °C 12.6 °C 1010.0 hPa Calm   5.0 km/h 45% 0.0 mm 126 W/m2
16:34 25.7 °C 12.9 °C 1010.0 hPa Calm   2.6 km/h 45% 0.0 mm 116 W/m2
16:36 25.6 °C 12.8 °C 1010.0 hPa Calm   2.6 km/h 45% 0.0 mm 111 W/m2
16:41 25.0 °C 12.3 °C 1010.0 hPa Calm   7.2 km/h 45% 0.0 mm 99 W/m2
16:46 24.6 °C 12.2 °C 1010.0 hPa Calm   7.2 km/h 46% 0.0 mm 89 W/m2
16:51 23.6 °C 11.7 °C 1010.0 hPa SSE 1.1 km/h 6.1 km/h 47% 0.0 mm 79 W/m2
16:56 23.6 °C 11.9 °C 1010.0 hPa Calm   6.1 km/h 48% 0.0 mm 68 W/m2
17:01 22.9 °C 11.6 °C 1010.4 hPa South 1.1 km/h 3.5 km/h 49% 0.0 mm 59 W/m2
17:06 22.5 °C 11.9 °C 1010.7 hPa Calm   3.5 km/h 51% 0.0 mm 51 W/m2
17:11 22.0 °C 11.4 °C 1010.7 hPa SSW 3.5 km/h 6.1 km/h 51% 0.0 mm 44 W/m2
17:16 21.3 °C 11.1 °C 1010.7 hPa South 3.5 km/h 8.7 km/h 52% 0.0 mm 26 W/m2
17:21 20.0 °C 10.7 °C 1011.1 hPa South 2.6 km/h 8.7 km/h 55% 0.0 mm 26 W/m2
17:26 20.0 °C 10.7 °C 1011.1 hPa Calm   7.2 km/h 55% 0.0 mm 24 W/m2
17:31 20.3 °C 11.2 °C 1011.1 hPa Calm   7.2 km/h 56% 0.0 mm 20 W/m2
17:36 19.5 °C 11.3 °C 1011.1 hPa Calm   2.6 km/h 59% 0.0 mm 16 W/m2
17:41 19.3 °C 11.3 °C 1011.1 hPa Calm   2.6 km/h 60% 0.0 mm 11 W/m2
17:46 19.1 °C 11.2 °C 1011.1 hPa Calm     60% 0.0 mm 7 W/m2
17:51 18.7 °C 11.3 °C 1011.4 hPa Calm     62% 0.0 mm 4 W/m2
17:56 17.9 °C 10.8 °C 1011.7 hPa Calm     63% 0.0 mm 1 W/m2
18:01 17.4 °C 10.6 °C 1011.4 hPa Calm     64% 0.0 mm 0 W/m2
18:06 17.1 °C 10.5 °C 1011.7 hPa Calm     65% 0.0 mm 0 W/m2
18:11 16.9 °C 10.9 °C 1011.7 hPa Calm     68% 0.0 mm 0 W/m2
18:16 16.8 °C 11.1 °C 1011.7 hPa Calm     69% 0.0 mm 0 W/m2
18:21 16.7 °C 11.2 °C 1011.7 hPa Calm   2.6 km/h 70% 0.0 mm 0 W/m2
18:26 16.6 °C 10.9 °C 1011.7 hPa Calm   2.6 km/h 69% 0.0 mm 0 W/m2
18:31 16.5 °C 11.0 °C 1011.7 hPa Calm     70% 0.0 mm 0 W/m2
18:36 16.3 °C 11.1 °C 1011.7 hPa Calm     71% 0.0 mm 0 W/m2
18:41 16.0 °C 10.9 °C 1011.7 hPa Calm     72% 0.0 mm 0 W/m2
18:46 15.8 °C 11.2 °C 1012.1 hPa Calm     74% 0.0 mm 0 W/m2
18:51 15.5 °C 10.9 °C 1012.1 hPa Calm     74% 0.0 mm 0 W/m2
18:56 15.4 °C 11.0 °C 1012.1 hPa Calm     75% 0.0 mm 0 W/m2
19:01 15.4 °C 11.2 °C 1012.1 hPa Calm     76% 0.0 mm 0 W/m2
19:06 15.2 °C 11.2 °C 1012.1 hPa Calm     77% 0.0 mm 0 W/m2
19:11 15.1 °C 11.1 °C 1012.4 hPa Calm     77% 0.0 mm 0 W/m2
19:16 15.1 °C 11.3 °C 1012.4 hPa Calm     78% 0.0 mm 0 W/m2
19:21 14.9 °C 11.3 °C 1012.4 hPa Calm     79% 0.0 mm 0 W/m2
19:26 14.7 °C 11.1 °C 1012.4 hPa Calm     79% 0.0 mm 0 W/m2
19:31 14.6 °C 11.2 °C 1012.4 hPa Calm     80% 0.0 mm 0 W/m2
19:36 14.6 °C 11.2 °C 1012.4 hPa Calm   1.1 km/h 80% 0.0 mm 0 W/m2
19:41 14.5 °C 11.3 °C 1012.4 hPa Calm   1.1 km/h 81% 0.0 mm 0 W/m2
19:46 14.4 °C 11.4 °C 1012.4 hPa Calm   1.1 km/h 82% 0.0 mm 0 W/m2
19:51 14.2 °C 11.2 °C 1012.4 hPa Calm     82% 0.0 mm 0 W/m2
19:56 14.1 °C 11.1 °C 1012.8 hPa Calm   1.1 km/h 82% 0.0 mm 0 W/m2
20:01 14.0 °C 11.0 °C 1012.8 hPa Calm   1.1 km/h 82% 0.0 mm 0 W/m2
20:06 14.1 °C 11.4 °C 1012.8 hPa Calm     84% 0.0 mm 0 W/m2
20:11 14.2 °C 11.6 °C 1012.8 hPa NNW 2.6 km/h 6.1 km/h 84% 0.0 mm 0 W/m2
20:16 14.4 °C 11.7 °C 1012.8 hPa NNW 2.6 km/h 6.1 km/h 84% 0.0 mm 0 W/m2
20:21 14.4 °C 11.7 °C 1012.8 hPa NNW 3.5 km/h 6.1 km/h 84% 0.0 mm 0 W/m2
20:26 15.1 °C 12.1 °C 1012.4 hPa NNW 3.5 km/h 8.7 km/h 82% 0.0 mm 0 W/m2
20:31 15.6 °C 12.2 °C 1012.8 hPa NNW 3.5 km/h 8.7 km/h 80% 0.0 mm 0 W/m2
20:36 15.8 °C 12.0 °C 1012.8 hPa NNW 2.6 km/h 8.7 km/h 78% 0.0 mm 0 W/m2
20:41 15.8 °C 11.8 °C 1012.8 hPa Calm   8.7 km/h 77% 0.0 mm 0 W/m2
20:46 15.6 °C 11.6 °C 1012.8 hPa Calm   3.5 km/h 77% 0.0 mm 0 W/m2
20:51 15.4 °C 11.6 °C 1012.8 hPa NW 2.6 km/h 3.5 km/h 78% 0.0 mm 0 W/m2
20:56 15.1 °C 11.5 °C 1012.8 hPa NNW 1.1 km/h 5.0 km/h 79% 0.0 mm 0 W/m2
21:01 15.0 °C 11.6 °C 1013.1 hPa NNW 1.1 km/h 5.0 km/h 80% 0.0 mm 0 W/m2
21:06 14.9 °C 11.7 °C 1013.1 hPa NW 2.6 km/h 5.0 km/h 81% 0.0 mm 0 W/m2
21:11 14.8 °C 11.8 °C 1012.8 hPa NNW 2.6 km/h 6.1 km/h 82% 0.0 mm 0 W/m2
21:16 14.9 °C 11.8 °C 1012.8 hPa NNW 1.1 km/h 6.1 km/h 82% 0.0 mm 0 W/m2
21:21 14.8 °C 11.9 °C 1013.1 hPa NNW 1.1 km/h 6.1 km/h 83% 0.0 mm 0 W/m2
21:26 14.9 °C 12.1 °C 1012.8 hPa NNW 3.5 km/h 6.1 km/h 83% 0.0 mm 0 W/m2
21:31 14.9 °C 12.1 °C 1013.1 hPa NW 3.5 km/h 7.2 km/h 83% 0.0 mm 0 W/m2
21:36 15.0 °C 11.9 °C 1013.1 hPa NNW 7.2 km/h 11.1 km/h 82% 0.0 mm 0 W/m2
21:41 15.0 °C 11.8 °C 1013.1 hPa NNW 7.2 km/h 12.2 km/h 81% 0.0 mm 0 W/m2
21:46 15.0 °C 11.9 °C 1013.1 hPa NW 8.7 km/h 13.4 km/h 82% 0.0 mm 0 W/m2
21:51 15.1 °C 11.9 °C 1013.1 hPa NW 8.7 km/h 15.8 km/h 81% 0.0 mm 0 W/m2
21:56 15.2 °C 11.8 °C 1013.1 hPa NW 6.1 km/h 15.8 km/h 80% 0.0 mm 0 W/m2
22:16 14.9 °C 11.8 °C 1013.4 hPa NNW 8.7 km/h 11.1 km/h 82% 0.0 mm 0 W/m2
22:21 14.7 °C 11.8 °C 1013.4 hPa NNW 5.0 km/h 12.2 km/h 83% 0.0 mm 0 W/m2
22:26 14.5 °C 11.7 °C 1013.4 hPa NNW 7.2 km/h 12.2 km/h 83% 0.0 mm 0 W/m2
22:31 14.5 °C 11.8 °C 1013.4 hPa NNW 5.0 km/h 13.4 km/h 84% 0.0 mm 0 W/m2
22:36 14.4 °C 11.7 °C 1013.4 hPa NNW 5.0 km/h 13.4 km/h 84% 0.0 mm 0 W/m2
22:41 14.4 °C 11.7 °C 1013.4 hPa NNW 7.2 km/h 11.1 km/h 84% 0.0 mm 0 W/m2
22:46 14.4 °C 11.7 °C 1013.4 hPa NNW 3.5 km/h 9.7 km/h 84% 0.0 mm 0 W/m2
22:51 14.4 °C 11.7 °C 1013.4 hPa North 3.5 km/h 9.7 km/h 84% 0.0 mm 0 W/m2
22:56 14.5 °C 11.7 °C 1013.4 hPa North 5.0 km/h 9.7 km/h 83% 0.0 mm 0 W/m2
23:01 14.8 °C 11.8 °C 1013.4 hPa North 3.5 km/h 9.7 km/h 82% 0.0 mm 0 W/m2
23:06 15.1 °C 11.5 °C 1013.4 hPa North 7.2 km/h 12.2 km/h 79% 0.0 mm 0 W/m2
23:11 15.2 °C 11.4 °C 1013.4 hPa North 6.1 km/h 12.2 km/h 78% 0.0 mm 0 W/m2
23:16 15.2 °C 11.2 °C 1013.4 hPa North 3.5 km/h 12.2 km/h 77% 0.0 mm 0 W/m2
23:21 15.3 °C 11.3 °C 1013.4 hPa North 3.5 km/h 9.7 km/h 77% 0.0 mm 0 W/m2
23:26 15.3 °C 11.1 °C 1013.4 hPa North 7.2 km/h 13.4 km/h 76% 0.0 mm 0 W/m2
23:32 15.4 °C 11.2 °C 1013.4 hPa North 6.1 km/h 13.4 km/h 76% 0.0 mm 0 W/m2
23:37 15.4 °C 11.2 °C 1013.4 hPa North 7.2 km/h 12.2 km/h 76% 0.0 mm 0 W/m2
23:42 15.3 °C 11.1 °C 1013.4 hPa North 7.2 km/h 12.2 km/h 76% 0.0 mm 0 W/m2
23:47 15.2 °C 11.0 °C 1013.4 hPa North 5.0 km/h 12.2 km/h 76% 0.0 mm 0 W/m2
23:52 15.2 °C 11.0 °C 1013.4 hPa North 6.1 km/h 11.1 km/h 76% 0.0 mm 0 W/m2
23:57 15.2 °C 11.0 °C 1013.4 hPa North 5.0 km/h 11.1 km/h 76% 0.0 mm 0 W/m2
Northern Hawkes Bay. New Zealand Historic Data
Compliments of Weather Underground - 2 mb